Time;durP1;ratioP1;P1;durP2;ratioP2;P2;SDS_P1;SDS_P2;PMS_P1;PMS_P2;Temp;Humidity;BMP_temperature;BMP_pressure;BME280_temperature;BME280_humidity;BME280_pressure;Samples;Min_cycle;Max_cycle;Signal;HPM_P1;HPM_P2
2021/05/18 00:00:31;;;;;;;0.80;0.30;;;11.00;1.00;;;;;;5011466;28;20026;-77
2021/05/18 00:02:57;;;;;;;0.57;0.40;;;10.90;1.00;;;;;;5008262;28;20062;-78
2021/05/18 00:05:26;;;;;;;0.50;0.30;;;10.90;1.00;;;;;;5011909;28;20065;-78
2021/05/18 00:07:58;;;;;;;0.30;0.30;;;10.90;1.00;;;;;;5017358;28;20021;-78
2021/05/18 00:13:11;;;;;;;1.05;0.35;;;10.90;1.00;;;;;;5014185;28;20057;-79
2021/05/18 00:15:37;;;;;;;1.88;0.55;;;11.00;1.00;;;;;;5013618;28;20035;-78
2021/05/18 00:18:04;;;;;;;0.43;0.32;;;10.90;1.00;;;;;;5017000;28;20427;-78
2021/05/18 00:20:29;;;;;;;3.03;0.50;;;10.90;1.00;;;;;;5013237;28;20501;-79
2021/05/18 00:22:55;;;;;;;1.40;0.38;;;10.90;1.00;;;;;;5011627;28;20022;-78
2021/05/18 00:25:21;;;;;;;0.52;0.30;;;10.80;1.00;;;;;;5000445;28;20030;-77
2021/05/18 00:27:46;;;;;;;0.30;0.30;;;10.70;1.00;;;;;;5007770;28;20395;-78
2021/05/18 00:30:13;;;;;;;1.25;0.63;;;10.70;1.00;;;;;;5005640;28;20060;-78
2021/05/18 00:32:39;;;;;;;2.65;0.55;;;10.70;1.00;;;;;;5008552;28;20030;-77
2021/05/18 00:35:08;;;;;;;0.40;0.40;;;10.80;1.00;;;;;;5000322;28;20586;-77
2021/05/18 00:37:33;;;;;;;0.45;0.40;;;10.80;1.00;;;;;;5004440;28;20093;-78
2021/05/18 00:39:59;;;;;;;0.30;0.30;;;10.70;1.00;;;;;;5006480;28;20112;-78
2021/05/18 00:42:25;;;;;;;0.25;0.25;;;10.70;1.00;;;;;;5000828;28;20025;-77
2021/05/18 00:44:53;;;;;;;0.38;0.20;;;10.80;1.00;;;;;;5008180;28;20056;-77
2021/05/18 00:47:19;;;;;;;0.40;0.30;;;10.70;1.00;;;;;;5009744;28;20022;-78
2021/05/18 00:49:45;;;;;;;0.40;0.40;;;10.60;1.00;;;;;;5012131;28;20057;-78
2021/05/18 00:52:11;;;;;;;0.40;0.40;;;10.60;1.00;;;;;;5009848;28;20030;-77
2021/05/18 01:00:19;;;;;;;1.08;0.45;;;10.60;1.00;;;;;;5014065;28;20044;-78
2021/05/18 01:02:48;;;;;;;0.35;0.30;;;10.60;1.00;;;;;;5001654;28;20034;-79
2021/05/18 01:06:18;;;;;;;0.60;0.40;;;10.50;1.00;;;;;;5070728;23;20069;-76
2021/05/18 01:08:13;;;;;;;0.30;0.30;;;10.50;1.00;;;;;;5015194;28;20090;-77
2021/05/18 01:11:00;;;;;;;0.68;0.40;;;10.40;1.00;;;;;;5010666;28;20031;-78
2021/05/18 01:13:30;;;;;;;0.38;0.38;;;10.30;1.00;;;;;;5019811;28;20035;-78
2021/05/18 01:16:16;;;;;;;0.70;0.40;;;10.30;1.00;;;;;;4994341;28;20031;-78
2021/05/18 01:18:51;;;;;;;0.35;0.30;;;10.30;1.00;;;;;;5000382;28;20349;-79
2021/05/18 01:21:32;;;;;;;0.20;0.20;;;10.30;1.00;;;;;;4983462;28;20066;-79
2021/05/18 01:24:04;;;;;;;0.98;0.82;;;10.30;1.00;;;;;;4996421;28;20031;-80
2021/05/18 01:26:38;;;;;;;1.08;0.30;;;10.30;1.00;;;;;;4987448;28;20350;-79
2021/05/18 01:29:23;;;;;;;0.57;0.35;;;10.40;1.00;;;;;;4992300;28;20416;-78
2021/05/18 01:31:52;;;;;;;0.30;0.30;;;10.40;1.00;;;;;;5003517;28;20050;-78
2021/05/18 01:34:21;;;;;;;0.80;0.38;;;10.40;1.00;;;;;;5019224;28;20039;-79
2021/05/18 01:36:50;;;;;;;0.32;0.20;;;10.50;1.00;;;;;;5016197;28;20046;-78
2021/05/18 01:44:34;;;;;;;0.20;0.20;;;10.60;1.00;;;;;;5000640;28;20017;-78
2021/05/18 01:47:10;;;;;;;1.85;0.55;;;10.60;1.00;;;;;;5009066;28;20111;-79
2021/05/18 01:49:39;;;;;;;0.32;0.30;;;10.50;1.00;;;;;;5027407;28;20041;-78
2021/05/18 01:52:14;;;;;;;0.90;0.50;;;10.60;1.00;;;;;;5016288;28;20034;-77
2021/05/18 01:54:42;;;;;;;0.65;0.30;;;10.50;1.00;;;;;;5017281;28;20015;-78
2021/05/18 01:59:51;;;;;;;3.30;0.43;;;10.50;1.00;;;;;;5001291;28;20045;-78
2021/05/18 02:02:20;;;;;;;0.30;0.30;;;10.50;1.00;;;;;;5015884;28;20022;-78
2021/05/18 02:04:56;;;;;;;0.85;0.40;;;10.50;1.00;;;;;;4981709;28;20011;-79
2021/05/18 02:07:28;;;;;;;0.57;0.30;;;10.40;1.00;;;;;;5014284;28;20570;-77
2021/05/18 02:10:01;;;;;;;0.30;0.30;;;10.40;1.00;;;;;;5005560;28;20041;-77
2021/05/18 02:12:32;;;;;;;0.30;0.30;;;10.40;1.00;;;;;;4995598;28;20023;-78
2021/05/18 02:15:03;;;;;;;;;;;10.40;1.00;;;;;;4983878;28;20031;-78
2021/05/18 02:17:43;;;;;;;0.40;0.40;;;10.40;1.00;;;;;;4983661;28;19910;-78
2021/05/18 02:25:19;;;;;;;2.08;0.40;;;10.30;1.00;;;;;;4981656;28;20086;-79
2021/05/18 02:27:45;;;;;;;0.45;0.40;;;10.30;1.00;;;;;;4986134;28;20471;-78
2021/05/18 02:30:15;;;;;;;1.33;0.43;;;10.30;1.00;;;;;;5007213;28;20015;-78
2021/05/18 02:32:42;;;;;;;1.38;0.40;;;10.20;1.00;;;;;;5011745;28;20047;-79
2021/05/18 02:35:19;;;;;;;0.40;0.30;;;10.20;1.00;;;;;;4982300;28;20549;-78
2021/05/18 02:37:49;;;;;;;6.63;0.98;;;10.20;1.00;;;;;;4978844;28;20031;-80
2021/05/18 02:40:27;;;;;;;1.45;0.30;;;10.20;1.00;;;;;;4975856;28;20027;-79
2021/05/18 02:42:53;;;;;;;0.28;0.28;;;10.20;1.00;;;;;;4980747;28;20022;-78
2021/05/18 02:45:31;;;;;;;2.38;0.38;;;10.20;1.00;;;;;;4982156;28;20053;-77
2021/05/18 02:50:54;;;;;;;1.88;0.40;;;10.20;1.00;;;;;;4993318;28;21369;-79
2021/05/18 02:53:30;;;;;;;0.45;0.40;;;10.20;1.00;;;;;;4993287;28;20023;-79
2021/05/18 02:56:40;;;;;;;0.40;0.30;;;10.30;1.00;;;;;;4983362;28;20157;-77
2021/05/18 03:01:39;;;;;;;0.73;0.30;;;10.30;1.00;;;;;;4993892;28;20034;-78
2021/05/18 03:04:07;;;;;;;0.75;0.40;;;10.30;1.00;;;;;;4980000;28;20025;-78
2021/05/18 03:06:34;;;;;;;0.35;0.30;;;10.30;1.00;;;;;;4975551;28;20438;-78
2021/05/18 03:09:08;;;;;;;0.45;0.40;;;10.30;1.00;;;;;;4998161;28;20052;-78
2021/05/18 03:11:37;;;;;;;0.30;0.30;;;10.30;1.00;;;;;;5024390;28;20023;-77
2021/05/18 03:14:14;;;;;;;0.35;0.30;;;10.30;1.00;;;;;;5018172;28;20026;-78
2021/05/18 03:16:47;;;;;;;0.57;0.40;;;10.30;1.00;;;;;;5004337;28;20021;-77
2021/05/18 03:19:16;;;;;;;0.68;0.40;;;10.30;1.00;;;;;;4983555;28;20118;-78
2021/05/18 03:21:44;;;;;;;1.90;0.30;;;10.30;1.00;;;;;;4981235;28;20384;-79
2021/05/18 03:24:12;;;;;;;1.88;0.30;;;10.30;1.00;;;;;;4987426;28;20046;-79
2021/05/18 03:26:46;;;;;;;0.57;0.40;;;10.30;1.00;;;;;;4999825;28;20072;-79
2021/05/18 03:29:22;;;;;;;0.40;0.40;;;10.30;1.00;;;;;;4976148;28;20027;-78
2021/05/18 03:34:51;;;;;;;0.47;0.28;;;10.30;1.00;;;;;;4976825;28;20037;-78
2021/05/18 03:37:33;;;;;;;0.40;0.40;;;10.30;1.00;;;;;;4977172;28;20400;-79
2021/05/18 03:40:04;;;;;;;1.08;0.50;;;10.20;1.00;;;;;;4984309;28;20037;-79
2021/05/18 03:42:43;;;;;;;1.65;1.02;;;10.20;1.00;;;;;;4976478;28;20031;-78
2021/05/18 03:45:21;;;;;;;0.68;0.30;;;10.10;1.00;;;;;;5002014;28;20521;-78
2021/05/18 04:02:40;;;;;;;0.65;0.40;;;10.00;1.00;;;;;;4988065;28;20222;-78
2021/05/18 04:04:56;;;;;;;0.77;0.40;;;10.10;1.00;;;;;;4976613;28;20053;-79
2021/05/18 04:10:39;;;;;;;0.60;0.60;;;10.10;1.00;;;;;;4997497;28;20037;-77
2021/05/18 04:19:17;;;;;;;1.08;0.40;;;10.30;1.00;;;;;;4991650;28;20095;-78
2021/05/18 04:50:03;;;;;;;0.30;0.30;;;10.70;1.00;;;;;;5000542;28;20329;-79
2021/05/18 04:52:56;;;;;;;1.50;0.50;;;10.70;1.00;;;;;;5013334;28;20042;-77
2021/05/18 04:59:02;;;;;;;1.08;0.40;;;10.80;1.00;;;;;;4991872;28;20035;-79
2021/05/18 05:07:07;;;;;;;0.25;0.22;;;10.80;1.00;;;;;;5002775;28;20164;-78
2021/05/18 05:10:01;;;;;;;2.22;0.40;;;10.80;1.00;;;;;;5009874;28;20102;-78
2021/05/18 05:14:06;;;;;;;0.40;0.40;;;10.80;1.00;;;;;;4990469;28;20018;-80
2021/05/18 05:15:51;;;;;;;0.73;0.40;;;10.80;1.00;;;;;;4981432;28;20027;-79
2021/05/18 05:18:24;;;;;;;0.60;0.60;;;10.80;1.00;;;;;;4989826;28;20062;-79
2021/05/18 05:21:12;;;;;;;0.77;0.77;;;10.80;1.00;;;;;;4984425;28;20023;-80
2021/05/18 05:23:39;;;;;;;0.80;0.43;;;10.90;1.00;;;;;;4986730;28;20039;-78
2021/05/18 05:26:11;;;;;;;0.82;0.50;;;11.00;1.00;;;;;;4997958;28;20031;-79
2021/05/18 05:28:43;;;;;;;2.03;0.90;;;11.00;1.00;;;;;;4992469;28;20033;-78
2021/05/18 05:31:12;;;;;;;1.17;0.60;;;11.00;1.00;;;;;;4988249;28;20421;-80
2021/05/18 05:33:41;;;;;;;1.30;0.60;;;10.90;1.00;;;;;;4993324;28;20026;-79
2021/05/18 05:36:08;;;;;;;1.95;0.57;;;10.90;1.00;;;;;;4983473;28;20034;-82
2021/05/18 05:38:43;;;;;;;0.40;0.40;;;10.90;1.00;;;;;;4981039;28;20064;-80
2021/05/18 05:41:15;;;;;;;2.83;0.80;;;10.90;1.00;;;;;;4990975;28;20557;-80
2021/05/18 05:43:41;;;;;;;0.75;0.70;;;10.90;1.00;;;;;;4989117;28;20025;-77
2021/05/18 05:46:10;;;;;;;0.50;0.50;;;10.80;1.00;;;;;;5018768;28;20023;-76
2021/05/18 05:48:52;;;;;;;0.40;0.40;;;10.90;1.00;;;;;;5015408;28;20046;-80
2021/05/18 05:51:39;;;;;;;0.90;0.43;;;10.90;1.00;;;;;;4987413;28;20075;-79
2021/05/18 05:54:08;;;;;;;0.45;0.40;;;10.90;1.00;;;;;;4983944;28;20066;-80
2021/05/18 05:56:34;;;;;;;0.55;0.40;;;11.00;1.00;;;;;;4987384;28;20038;-80
2021/05/18 05:59:05;;;;;;;1.10;0.80;;;11.00;1.00;;;;;;4987801;28;20041;-80
2021/05/18 06:01:32;;;;;;;;;;;11.10;1.00;;;;;;4985057;28;20051;-79
2021/05/18 06:03:58;;;;;;;0.80;0.50;;;11.00;1.00;;;;;;4984470;28;20405;-79
2021/05/18 06:06:28;;;;;;;0.40;0.40;;;11.00;1.00;;;;;;4989535;28;20034;-78
2021/05/18 06:08:57;;;;;;;0.63;0.45;;;10.90;1.00;;;;;;5003229;28;20042;-79
2021/05/18 06:37:08;;;;;;;1.40;0.82;;;11.00;1.00;;;;;;4981191;28;20038;-77
2021/05/18 06:42:40;;;;;;;1.52;0.90;;;11.20;1.00;;;;;;4989115;28;20033;-78
2021/05/18 06:48:14;;;;;;;2.78;0.70;;;11.70;1.00;;;;;;5002970;28;20053;-77
2021/05/18 06:54:18;;;;;;;1.48;0.40;;;12.30;1.00;;;;;;4987094;28;20430;-79
2021/05/18 06:57:12;;;;;;;0.63;0.50;;;12.40;1.00;;;;;;5003680;28;20027;-77
2021/05/18 07:02:57;;;;;;;0.88;0.50;;;12.40;1.00;;;;;;4986786;28;20090;-79
2021/05/18 07:08:56;;;;;;;1.38;0.63;;;12.40;1.00;;;;;;4968626;28;20089;-80
2021/05/18 07:11:43;;;;;;;0.43;0.40;;;12.30;1.00;;;;;;5000651;28;20110;-78
2021/05/18 07:14:30;;;;;;;0.30;0.30;;;12.30;1.00;;;;;;5006622;28;20034;-77
2021/05/18 07:17:08;;;;;;;2.08;0.63;;;12.30;1.00;;;;;;4986333;28;20035;-76
2021/05/18 07:19:46;;;;;;;0.63;0.60;;;12.40;1.00;;;;;;4990817;28;20034;-79
2021/05/18 07:25:20;;;;;;;0.70;0.60;;;12.60;1.00;;;;;;4986724;28;20058;-78
2021/05/18 07:28:22;;;;;;;2.50;0.50;;;12.80;1.00;;;;;;5004338;28;20042;-80
2021/05/18 07:34:17;;;;;;;2.15;0.50;;;13.50;99.90;;;;;;5008378;28;20046;-79
2021/05/18 07:37:05;;;;;;;1.30;0.40;;;13.70;99.90;;;;;;4994579;28;20029;-79
2021/05/18 07:39:51;;;;;;;0.45;0.35;;;13.90;99.90;;;;;;4984472;28;20026;-79
2021/05/18 07:42:46;;;;;;;1.45;0.50;;;13.90;99.90;;;;;;4995231;28;20045;-78
2021/05/18 07:45:35;;;;;;;0.45;0.45;;;14.00;99.90;;;;;;5038563;23;20065;-79
2021/05/18 07:48:31;;;;;;;2.17;0.80;;;13.90;99.90;;;;;;5002280;28;20041;-80
2021/05/18 07:59:23;;;;;;;2.10;0.70;;;13.00;99.90;;;;;;5004163;28;20065;-79
2021/05/18 08:07:52;;;;;;;1.60;0.68;;;12.70;99.90;;;;;;4998505;28;20038;-80
2021/05/18 08:10:44;;;;;;;2.60;1.05;;;12.70;1.00;;;;;;5003006;28;20037;-79
2021/05/18 08:13:23;;;;;;;2.15;0.50;;;12.80;1.00;;;;;;5001500;28;20031;-79
2021/05/18 08:22:21;;;;;;;1.70;0.90;;;13.00;99.90;;;;;;4999631;28;20058;-79
2021/05/18 10:26:41;;;;;;;0.50;0.30;;;14.80;99.90;;;;;;4998011;28;20026;-78
2021/05/18 10:44:00;;;;;;;4.68;0.95;;;16.00;99.90;;;;;;4928350;28;20132;-82
2021/05/18 10:47:04;;;;;;;2.45;0.88;;;15.90;99.90;;;;;;4989027;28;20181;-81
2021/05/18 10:49:37;;;;;;;1.67;0.60;;;16.20;99.90;;;;;;4989374;28;20039;-80
2021/05/18 10:52:17;;;;;;;4.15;0.95;;;16.30;99.90;;;;;;4986582;28;20034;-80
2021/05/18 10:54:46;;;;;;;2.65;0.52;;;16.50;99.90;;;;;;4992087;28;20046;-80
2021/05/18 10:57:33;;;;;;;3.30;0.75;;;16.90;46.50;;;;;;4984515;28;20051;-79
2021/05/18 11:00:13;;;;;;;0.98;0.70;;;17.00;99.90;;;;;;4985265;28;20039;-79
2021/05/18 11:02:48;;;;;;;1.00;0.50;;;16.90;99.90;;;;;;4992675;28;20026;-81
2021/05/18 11:05:30;;;;;;;0.82;0.50;;;16.80;1.00;;;;;;4995792;28;20502;-80
2021/05/18 11:08:14;;;;;;;1.10;0.45;;;16.70;98.30;;;;;;5002251;28;20099;-80
2021/05/18 11:10:51;;;;;;;2.00;0.88;;;16.40;1.00;;;;;;5002771;28;20033;-79
2021/05/18 11:13:35;;;;;;;2.05;0.40;;;16.10;99.90;;;;;;4994473;28;20042;-79
2021/05/18 11:16:26;;;;;;;2.38;1.00;;;16.50;99.90;;;;;;4996965;28;20023;-81
2021/05/18 11:19:10;;;;;;;0.95;0.40;;;17.20;91.10;;;;;;4992486;28;20022;-79
2021/05/18 11:25:11;;;;;;;1.70;0.50;;;18.00;99.90;;;;;;4996382;28;20038;-81
2021/05/18 11:28:03;;;;;;;3.97;0.73;;;18.40;80.50;;;;;;4995668;28;20086;-79
2021/05/18 11:31:13;;;;;;;1.58;0.50;;;18.80;1.00;;;;;;4987904;28;20395;-81
2021/05/18 11:33:51;;;;;;;2.28;0.57;;;19.20;99.90;;;;;;4996406;28;20077;-82
2021/05/18 11:37:01;;;;;;;2.78;0.55;;;18.90;99.90;;;;;;4994696;28;20031;-82
2021/05/18 11:39:46;;;;;;;1.98;0.50;;;18.60;99.90;;;;;;5003773;28;20062;-80
2021/05/18 11:42:50;;;;;;;3.88;0.60;;;18.50;99.90;;;;;;5009537;28;20045;-79
2021/05/18 11:45:21;;;;;;;2.75;0.30;;;17.40;99.90;;;;;;4926566;29;20036;-75
2021/05/18 11:47:50;;;;;;;1.77;0.52;;;16.40;99.90;;;;;;4934642;29;20072;-79
2021/05/18 11:50:22;;;;;;;1.40;0.60;;;16.00;99.90;;;;;;4976861;28;20037;-77
2021/05/18 11:52:49;;;;;;;1.33;0.60;;;15.90;99.90;;;;;;4996058;28;20026;-79
2021/05/18 11:55:18;;;;;;;0.75;0.50;;;15.30;99.90;;;;;;4992665;28;20030;-78
2021/05/18 11:57:55;;;;;;;2.05;0.50;;;15.50;1.00;;;;;;4992332;28;20026;-80
2021/05/18 12:00:28;;;;;;;3.45;0.80;;;15.40;53.40;;;;;;4986681;28;20034;-76
2021/05/18 12:03:08;;;;;;;2.45;0.50;;;15.60;1.00;;;;;;4978475;28;20491;-75
2021/05/18 12:05:35;;;;;;;1.98;0.90;;;15.60;28.90;;;;;;4986662;28;20080;-75
2021/05/18 12:08:00;;;;;;;1.63;0.60;;;15.70;99.90;;;;;;4980508;28;20034;-75
2021/05/18 12:10:28;;;;;;;3.08;0.45;;;15.80;99.90;;;;;;4984250;28;20023;-77
2021/05/18 12:12:53;;;;;;;2.92;0.60;;;16.10;99.90;;;;;;4982358;28;20468;-76
2021/05/18 12:15:19;;;;;;;1.95;0.70;;;16.40;99.90;;;;;;4978550;28;20162;-76
2021/05/18 12:17:44;;;;;;;1.38;0.50;;;16.40;99.90;;;;;;4984448;28;20565;-77
2021/05/18 12:20:16;;;;;;;2.30;0.85;;;16.40;99.90;;;;;;4991051;28;20049;-76
2021/05/18 12:22:42;;;;;;;;;;;16.20;99.90;;;;;;4992707;28;20076;-76
2021/05/18 12:25:09;;;;;;;2.85;0.40;;;16.30;99.90;;;;;;4985016;28;20673;-74
2021/05/18 12:27:45;;;;;;;2.45;0.50;;;16.60;98.90;;;;;;4990904;28;20031;-77
2021/05/18 12:30:11;;;;;;;2.88;0.80;;;16.90;99.90;;;;;;4993134;28;20023;-75
2021/05/18 12:32:47;;;;;;;2.90;0.98;;;17.10;99.90;;;;;;5004805;28;20027;-75
2021/05/18 12:35:22;;;;;;;0.70;0.30;;;16.90;99.90;;;;;;4983323;28;20034;-74
2021/05/18 12:37:49;;;;;;;1.10;0.50;;;17.20;99.90;;;;;;4984350;28;20027;-76
2021/05/18 12:40:25;;;;;;;1.35;0.57;;;17.20;99.90;;;;;;4992113;28;20065;-76
2021/05/18 12:42:51;;;;;;;3.78;1.27;;;17.10;99.90;;;;;;4982549;28;20114;-76
2021/05/18 12:45:17;;;;;;;2.33;0.55;;;17.50;99.90;;;;;;4989312;28;20490;-75
2021/05/18 12:47:44;;;;;;;2.78;1.00;;;17.90;99.90;;;;;;4987164;28;20410;-75
2021/05/18 12:50:12;;;;;;;4.82;0.75;;;17.80;99.90;;;;;;4989108;28;20034;-77
2021/05/18 12:52:43;;;;;;;2.45;0.43;;;17.50;99.90;;;;;;5010287;28;20491;-76
2021/05/18 12:55:24;;;;;;;0.22;0.22;;;17.00;99.90;;;;;;4989751;28;20106;-76
2021/05/18 12:57:52;;;;;;;3.23;1.00;;;16.60;99.90;;;;;;4988447;28;20026;-75
2021/05/18 13:00:26;;;;;;;6.18;0.90;;;16.00;1.00;;;;;;4986469;28;20344;-75
2021/05/18 13:02:53;;;;;;;1.75;1.10;;;15.80;99.90;;;;;;4994658;28;20030;-74
2021/05/18 13:05:24;;;;;;;1.92;0.70;;;15.90;2.40;;;;;;4993906;28;20027;-76
2021/05/18 13:08:09;;;;;;;3.25;0.60;;;16.20;99.90;;;;;;4988154;28;20084;-76
2021/05/18 13:13:11;;;;;;;0.80;0.80;;;16.50;99.90;;;;;;5008981;28;20031;-75
2021/05/18 13:15:37;;;;;;;1.90;0.73;;;16.60;1.00;;;;;;4986950;28;20079;-76
2021/05/18 13:18:06;;;;;;;1.80;0.82;;;16.80;1.00;;;;;;4991723;28;20030;-76
2021/05/18 13:20:51;;;;;;;2.20;1.25;;;17.20;99.90;;;;;;4990901;28;20117;-75
2021/05/18 13:28:48;;;;;;;1.30;0.50;;;17.60;99.90;;;;;;4982281;28;20037;-74
2021/05/18 13:31:14;;;;;;;1.83;0.40;;;17.60;95.30;;;;;;4993451;28;20063;-73
2021/05/18 13:33:39;;;;;;;2.08;0.65;;;17.60;1.00;;;;;;5017005;28;20026;-74
2021/05/18 13:36:05;;;;;;;1.55;0.32;;;17.50;1.00;;;;;;4994578;28;20053;-73
2021/05/18 13:38:34;;;;;;;3.03;0.50;;;17.50;99.90;;;;;;4982212;28;20022;-75
2021/05/18 13:41:00;;;;;;;0.80;0.55;;;17.40;99.90;;;;;;4998296;28;20070;-74
2021/05/18 13:43:26;;;;;;;0.85;0.32;;;17.10;99.90;;;;;;5002699;28;20510;-74
2021/05/18 13:45:52;;;;;;;1.08;0.30;;;17.10;99.90;;;;;;4985146;28;20023;-75
2021/05/18 13:48:17;;;;;;;0.98;0.40;;;17.30;99.90;;;;;;4982627;28;20037;-75
2021/05/18 13:50:43;;;;;;;1.70;0.73;;;17.40;99.90;;;;;;5000673;28;20026;-75
2021/05/18 13:53:09;;;;;;;2.53;0.30;;;17.20;99.90;;;;;;4997316;28;20035;-76
2021/05/18 13:55:35;;;;;;;0.57;0.40;;;17.20;99.90;;;;;;5004250;28;20093;-76
2021/05/18 13:58:02;;;;;;;1.80;0.60;;;17.00;99.90;;;;;;5007311;28;20507;-75
2021/05/18 14:00:27;;;;;;;1.00;0.80;;;16.90;99.90;;;;;;5005841;28;20038;-74
2021/05/18 14:02:53;;;;;;;2.70;0.50;;;16.80;99.90;;;;;;4992723;28;20027;-74
2021/05/18 14:05:21;;;;;;;0.95;0.52;;;16.50;99.90;;;;;;4991215;28;20027;-75
2021/05/18 14:08:25;;;;;;;1.90;0.50;;;15.50;99.90;;;;;;4991374;28;20422;-74
2021/05/18 14:10:56;;;;;;;1.38;0.80;;;13.50;3.30;;;;;;5007773;28;20023;-75
2021/05/18 14:13:24;;;;;;;4.80;0.68;;;12.20;99.90;;;;;;4994610;28;20085;-75
2021/05/18 14:15:50;;;;;;;3.33;1.40;;;11.90;99.90;;;;;;4991623;28;20430;-74
2021/05/18 14:18:16;;;;;;;2.38;1.10;;;11.80;1.00;;;;;;4995378;28;20058;-74
2021/05/18 14:20:43;;;;;;;3.33;0.73;;;11.80;1.00;;;;;;4987060;28;20038;-75
2021/05/18 14:23:10;;;;;;;2.13;0.88;;;11.90;1.00;;;;;;4993519;28;20058;-74
2021/05/18 14:25:37;;;;;;;2.30;0.75;;;12.10;1.00;;;;;;4988748;28;20030;-75
2021/05/18 14:28:03;;;;;;;2.65;0.65;;;12.60;1.00;;;;;;4990921;28;20390;-75
2021/05/18 14:30:29;;;;;;;3.00;0.70;;;13.30;1.00;;;;;;4986579;28;20030;-73
2021/05/18 14:32:57;;;;;;;1.52;0.57;;;13.80;99.90;;;;;;4989972;28;20027;-73
2021/05/18 14:35:23;;;;;;;1.85;0.55;;;14.20;99.90;;;;;;4995413;28;20026;-75
2021/05/18 14:37:56;;;;;;;1.98;0.70;;;14.60;99.90;;;;;;4993138;28;20493;-74
2021/05/18 14:40:41;;;;;;;0.90;0.70;;;14.90;99.90;;;;;;5001470;28;20048;-75
2021/05/18 14:45:55;;;;;;;4.43;0.45;;;15.10;99.90;;;;;;4992190;28;20047;-74
2021/05/18 14:54:12;;;;;;;1.58;0.65;;;15.10;99.90;;;;;;4992601;28;20072;-74
2021/05/18 14:56:30;;;;;;;0.80;0.40;;;15.10;99.90;;;;;;4987885;28;20026;-74
2021/05/18 14:58:56;;;;;;;1.30;0.40;;;15.20;99.90;;;;;;4989880;28;20035;-74
2021/05/18 15:01:21;;;;;;;16.38;11.82;;;15.30;96.30;;;;;;4996962;28;20033;-75
2021/05/18 15:03:47;;;;;;;2.30;1.73;;;15.30;99.90;;;;;;4996488;28;20475;-74
2021/05/18 15:06:12;;;;;;;3.22;0.75;;;15.60;88.80;;;;;;4985790;28;20031;-73
2021/05/18 15:08:38;;;;;;;1.20;0.70;;;15.80;77.90;;;;;;4996209;28;20525;-74
2021/05/18 15:11:04;;;;;;;3.40;2.92;;;16.10;47.60;;;;;;4979791;28;20135;-75
2021/05/18 15:13:33;;;;;;;1.50;1.02;;;16.00;7.50;;;;;;4991951;28;20407;-74
2021/05/18 15:15:58;;;;;;;0.30;0.30;;;16.10;23.40;;;;;;4978258;28;20038;-73
2021/05/18 15:18:24;;;;;;;1.00;0.30;;;15.90;1.00;;;;;;4987617;28;20110;-75
2021/05/18 15:20:50;;;;;;;2.25;0.40;;;15.80;1.00;;;;;;4990628;28;20451;-74
2021/05/18 15:23:16;;;;;;;1.13;0.65;;;15.80;99.90;;;;;;4997882;28;20042;-74
2021/05/18 15:25:43;;;;;;;0.35;0.35;;;16.00;99.90;;;;;;5008829;28;20018;-74
2021/05/18 15:28:08;;;;;;;0.30;0.20;;;16.00;95.20;;;;;;5005104;28;20021;-72
2021/05/18 15:30:34;;;;;;;0.85;0.25;;;15.80;1.00;;;;;;4983178;28;20038;-73
2021/05/18 15:32:59;;;;;;;1.30;0.40;;;15.90;99.90;;;;;;4986443;28;20030;-71
2021/05/18 15:35:25;;;;;;;1.23;0.52;;;16.00;99.90;;;;;;4994715;28;20040;-73
2021/05/18 15:37:51;;;;;;;2.85;0.52;;;16.00;1.00;;;;;;4994549;28;20591;-72
2021/05/18 15:40:16;;;;;;;0.60;0.50;;;15.90;1.00;;;;;;4994559;28;20027;-72
2021/05/18 15:42:42;;;;;;;1.90;0.55;;;16.10;1.00;;;;;;4995640;28;20110;-71
2021/05/18 15:45:11;;;;;;;1.17;0.40;;;16.20;1.00;;;;;;4995741;28;20026;-70
2021/05/18 15:47:38;;;;;;;1.08;0.40;;;16.20;70.50;;;;;;4999498;28;20019;-70
2021/05/18 15:50:07;;;;;;;1.42;0.70;;;15.80;99.90;;;;;;4998686;28;20101;-70
2021/05/18 15:52:33;;;;;;;1.65;0.50;;;15.50;1.00;;;;;;4998208;28;20062;-72
2021/05/18 15:54:59;;;;;;;3.30;0.40;;;15.30;99.90;;;;;;5006689;28;20026;-71
2021/05/18 15:57:24;;;;;;;1.38;0.50;;;15.30;99.90;;;;;;4998004;28;20030;-71
2021/05/18 15:59:50;;;;;;;1.27;0.45;;;15.30;6.70;;;;;;4996741;28;20479;-69
2021/05/18 16:02:17;;;;;;;1.65;0.40;;;15.20;99.90;;;;;;4996656;28;20030;-70
2021/05/18 16:04:42;;;;;;;1.33;0.60;;;15.00;1.00;;;;;;5001787;28;20022;-70
2021/05/18 16:07:11;;;;;;;1.60;0.65;;;14.90;99.90;;;;;;4999757;28;20355;-70
2021/05/18 16:09:37;;;;;;;1.33;0.47;;;14.80;1.00;;;;;;4999877;28;20501;-71
2021/05/18 16:12:03;;;;;;;1.00;0.40;;;14.40;99.90;;;;;;4999783;28;20031;-71
2021/05/18 16:14:28;;;;;;;1.50;0.65;;;13.90;99.90;;;;;;4997873;28;20023;-71
2021/05/18 16:16:54;;;;;;;2.08;0.73;;;13.30;1.00;;;;;;4995150;28;20058;-71
2021/05/18 16:19:19;;;;;;;4.70;0.95;;;12.50;99.90;;;;;;4995522;28;20023;-71
2021/05/18 16:21:45;;;;;;;5.72;1.08;;;12.20;99.90;;;;;;4995834;28;20038;-70
2021/05/18 16:24:11;;;;;;;13.90;1.15;;;12.10;99.90;;;;;;4995849;28;20101;-71
2021/05/18 16:26:37;;;;;;;2.63;0.93;;;12.20;1.00;;;;;;4994548;28;20467;-71
2021/05/18 16:29:03;;;;;;;2.17;1.00;;;12.40;1.00;;;;;;4994832;28;20470;-71
2021/05/18 16:31:31;;;;;;;2.67;0.63;;;12.60;1.00;;;;;;4993710;28;20450;-71
2021/05/18 16:33:57;;;;;;;0.80;0.65;;;12.70;1.00;;;;;;4994459;28;20023;-71
2021/05/18 16:36:27;;;;;;;5.85;0.80;;;12.80;1.00;;;;;;4994704;28;20030;-70
2021/05/18 16:38:55;;;;;;;0.95;0.60;;;12.80;1.00;;;;;;5006816;28;20027;-70
2021/05/18 16:41:21;;;;;;;0.90;0.50;;;12.90;1.00;;;;;;5011010;28;20078;-70
2021/05/18 16:43:47;;;;;;;2.10;0.90;;;12.90;1.00;;;;;;5010819;28;20026;-70
2021/05/18 16:46:13;;;;;;;1.25;0.82;;;12.80;1.00;;;;;;5013542;28;20070;-73
2021/05/18 16:48:39;;;;;;;1.17;0.65;;;12.90;1.00;;;;;;5011648;28;20042;-70
2021/05/18 16:51:07;;;;;;;2.55;0.70;;;12.90;1.00;;;;;;5002748;28;20498;-71
2021/05/18 16:53:33;;;;;;;2.65;0.90;;;12.80;1.00;;;;;;5000212;28;20046;-70
2021/05/18 16:56:00;;;;;;;4.22;0.98;;;12.70;1.00;;;;;;5005007;28;20030;-71
2021/05/18 16:58:26;;;;;;;1.50;0.85;;;12.70;1.00;;;;;;5010337;28;20034;-71
2021/05/18 17:00:55;;;;;;;2.75;1.02;;;12.70;1.00;;;;;;5012479;28;20026;-73
2021/05/18 17:03:21;;;;;;;2.10;0.68;;;12.80;1.00;;;;;;5010020;28;20042;-70
2021/05/18 17:05:46;;;;;;;1.88;0.77;;;12.80;1.00;;;;;;5005623;28;20097;-72
2021/05/18 17:08:12;;;;;;;1.42;0.82;;;12.80;1.00;;;;;;4998976;28;20038;-73
2021/05/18 17:10:48;;;;;;;1.83;0.88;;;12.80;1.00;;;;;;4995143;28;20470;-74
2021/05/18 17:13:13;;;;;;;1.38;0.90;;;12.90;1.00;;;;;;5000554;28;20126;-71
2021/05/18 17:15:39;;;;;;;1.38;0.70;;;12.80;1.00;;;;;;5000192;28;20475;-71
2021/05/18 17:18:05;;;;;;;1.60;0.60;;;12.70;1.00;;;;;;5000849;28;20030;-71
2021/05/18 17:20:34;;;;;;;1.17;0.60;;;12.60;1.00;;;;;;5001942;28;20092;-72
2021/05/18 17:23:00;;;;;;;1.13;0.60;;;12.50;1.00;;;;;;5002523;28;20050;-70
2021/05/18 17:25:25;;;;;;;1.58;0.50;;;12.40;1.00;;;;;;5002186;28;20037;-71
2021/05/18 17:27:51;;;;;;;1.10;0.65;;;12.20;1.00;;;;;;4999252;28;20387;-70
2021/05/18 17:30:20;;;;;;;0.32;0.32;;;11.90;1.00;;;;;;5006963;28;20046;-71
2021/05/18 17:32:45;;;;;;;3.53;0.40;;;11.70;1.00;;;;;;5011588;28;20233;-70
2021/05/18 17:35:12;;;;;;;1.42;0.40;;;11.60;1.00;;;;;;5009166;28;20030;-70
2021/05/18 17:37:39;;;;;;;2.10;0.40;;;11.50;1.00;;;;;;5003668;28;20026;-73
2021/05/18 17:40:06;;;;;;;2.28;1.05;;;11.30;1.00;;;;;;4999326;28;20037;-71
2021/05/18 17:42:32;;;;;;;0.50;0.40;;;11.20;1.00;;;;;;4986745;28;20026;-71
2021/05/18 17:45:01;;;;;;;1.10;0.60;;;11.20;1.00;;;;;;4995488;28;20021;-72
2021/05/18 17:47:28;;;;;;;1.55;0.30;;;11.10;1.00;;;;;;4991455;28;20026;-71
2021/05/18 17:49:54;;;;;;;0.80;0.30;;;11.00;1.00;;;;;;4991883;28;20030;-73
2021/05/18 17:52:19;;;;;;;1.30;0.50;;;10.80;1.00;;;;;;4990900;28;20034;-71
2021/05/18 17:54:45;;;;;;;0.85;0.40;;;10.70;1.00;;;;;;5000052;28;20082;-72
2021/05/18 17:57:11;;;;;;;0.95;0.50;;;10.60;1.00;;;;;;4994821;28;20030;-74
2021/05/18 17:59:37;;;;;;;1.48;0.35;;;10.60;1.00;;;;;;4998761;28;20057;-74
2021/05/18 18:02:05;;;;;;;0.55;0.40;;;10.70;1.00;;;;;;4999460;28;20061;-72
2021/05/18 18:04:32;;;;;;;0.30;0.30;;;10.70;1.00;;;;;;4988707;28;20065;-72
2021/05/18 18:06:57;;;;;;;0.95;0.40;;;10.70;1.00;;;;;;4998646;28;20033;-73
2021/05/18 18:09:24;;;;;;;1.75;0.40;;;10.70;1.00;;;;;;4996056;28;20031;-73
2021/05/18 18:11:50;;;;;;;2.95;1.17;;;10.60;1.00;;;;;;4994854;28;20038;-72
2021/05/18 18:14:16;;;;;;;0.85;0.50;;;10.60;1.00;;;;;;4991401;28;20043;-72
2021/05/18 18:16:41;;;;;;;1.85;0.52;;;10.60;1.00;;;;;;4986603;28;20058;-73
2021/05/18 18:19:07;;;;;;;1.85;0.52;;;10.70;1.00;;;;;;4986686;28;20030;-73
2021/05/18 18:21:33;;;;;;;0.57;0.40;;;10.60;1.00;;;;;;4987224;28;20533;-72
2021/05/18 18:23:59;;;;;;;4.57;0.73;;;10.60;1.00;;;;;;4990928;28;20053;-72
2021/05/18 18:26:26;;;;;;;2.08;1.17;;;10.70;1.00;;;;;;5001318;28;20475;-72
2021/05/18 18:28:54;;;;;;;2.00;0.60;;;10.70;1.00;;;;;;4997526;28;20018;-73
2021/05/18 18:31:20;;;;;;;1.50;0.75;;;10.70;1.00;;;;;;4993976;28;20037;-73
2021/05/18 18:33:46;;;;;;;1.60;0.65;;;10.70;1.00;;;;;;4985851;28;20426;-72